sensor_id;sensor_type;location;lat;lon;timestamp;pressure;altitude;pressure_sealevel;temperature;humidity
60589;BME280;46421;48.610;9.334;2022-12-08T00:01:11;97603.66;;;2.04;94.60
60589;BME280;46421;48.610;9.334;2022-12-08T00:13:43;97605.38;;;1.84;96.93
60589;BME280;46421;48.610;9.334;2022-12-08T00:16:08;97609.88;;;1.72;96.07
60589;BME280;46421;48.610;9.334;2022-12-08T00:18:34;97601.59;;;1.36;95.35
60589;BME280;46421;48.610;9.334;2022-12-08T00:20:59;97599.34;;;1.10;96.58
60589;BME280;46421;48.610;9.334;2022-12-08T00:23:25;97597.44;;;1.13;96.95
60589;BME280;46421;48.610;9.334;2022-12-08T00:25:50;97594.94;;;0.90;98.06
60589;BME280;46421;48.610;9.334;2022-12-08T00:28:16;97599.91;;;0.72;99.23
60589;BME280;46421;48.610;9.334;2022-12-08T00:30:42;97603.06;;;0.54;99.35
60589;BME280;46421;48.610;9.334;2022-12-08T00:33:08;97595.25;;;0.75;99.90
60589;BME280;46421;48.610;9.334;2022-12-08T00:35:33;97597.66;;;0.67;98.22
60589;BME280;46421;48.610;9.334;2022-12-08T00:37:59;97598.06;;;0.84;98.85
60589;BME280;46421;48.610;9.334;2022-12-08T00:40:24;97599.88;;;1.04;96.34
60589;BME280;46421;48.610;9.334;2022-12-08T00:42:50;97590.09;;;1.28;98.04
60589;BME280;46421;48.610;9.334;2022-12-08T00:45:15;97589.81;;;1.31;92.22
60589;BME280;46421;48.610;9.334;2022-12-08T00:47:41;97584.28;;;0.82;95.16
60589;BME280;46421;48.610;9.334;2022-12-08T00:50:07;97588.09;;;0.45;97.13
60589;BME280;46421;48.610;9.334;2022-12-08T00:52:32;97592.78;;;0.19;96.70
60589;BME280;46421;48.610;9.334;2022-12-08T00:54:58;97595.88;;;0.24;100.00
60589;BME280;46421;48.610;9.334;2022-12-08T00:57:23;97586.94;;;0.38;97.67
60589;BME280;46421;48.610;9.334;2022-12-08T00:59:48;97579.03;;;0.05;97.35
60589;BME280;46421;48.610;9.334;2022-12-08T01:02:14;97581.78;;;-0.08;99.16
60589;BME280;46421;48.610;9.334;2022-12-08T01:04:39;97577.88;;;-0.36;100.00
60589;BME280;46421;48.610;9.334;2022-12-08T01:07:06;97574.31;;;-0.12;100.00
60589;BME280;46421;48.610;9.334;2022-12-08T01:09:31;97577.38;;;-0.07;100.00
60589;BME280;46421;48.610;9.334;2022-12-08T01:11:57;97580.84;;;-0.07;100.00
60589;BME280;46421;48.610;9.334;2022-12-08T01:14:22;97576.69;;;-0.09;100.00
60589;BME280;46421;48.610;9.334;2022-12-08T01:16:47;97573.75;;;-0.27;100.00
60589;BME280;46421;48.610;9.334;2022-12-08T01:19:14;97578.97;;;-0.27;100.00
60589;BME280;46421;48.610;9.334;2022-12-08T01:21:40;97583.81;;;-0.23;100.00
60589;BME280;46421;48.610;9.334;2022-12-08T01:24:08;97576.94;;;-0.12;100.00
60589;BME280;46421;48.610;9.334;2022-12-08T01:26:34;97578.34;;;-0.20;100.00
60589;BME280;46421;48.610;9.334;2022-12-08T01:29:00;97583.09;;;-0.13;99.83
60589;BME280;46421;48.610;9.334;2022-12-08T01:31:25;97586.44;;;-0.11;99.28
60589;BME280;46421;48.610;9.334;2022-12-08T01:33:51;97578.22;;;-0.18;100.00
60589;BME280;46421;48.610;9.334;2022-12-08T01:36:35;97581.69;;;-0.29;100.00
60589;BME280;46421;48.610;9.334;2022-12-08T01:39:05;97584.53;;;-0.09;100.00
60589;BME280;46421;48.610;9.334;2022-12-08T01:41:33;97589.75;;;-0.09;100.00
60589;BME280;46421;48.610;9.334;2022-12-08T01:46:36;97589.28;;;-0.03;100.00
60589;BME280;46421;48.610;9.334;2022-12-08T01:49:07;97594.16;;;0.02;99.49
60589;BME280;46421;48.610;9.334;2022-12-08T01:51:37;97588.19;;;0.11;97.91
60589;BME280;46421;48.610;9.334;2022-12-08T01:54:05;97594.97;;;0.13;98.97
60589;BME280;46421;48.610;9.334;2022-12-08T01:56:36;97587.44;;;0.97;95.23
60589;BME280;46421;48.610;9.334;2022-12-08T01:59:05;97584.44;;;0.36;91.87
60589;BME280;46421;48.610;9.334;2022-12-08T02:01:30;97582.97;;;-0.01;94.72
60589;BME280;46421;48.610;9.334;2022-12-08T02:03:58;97579.06;;;-0.18;94.82
60589;BME280;46421;48.610;9.334;2022-12-08T02:06:26;97585.47;;;-0.44;97.10
60589;BME280;46421;48.610;9.334;2022-12-08T02:08:53;97577.41;;;-0.64;98.22
60589;BME280;46421;48.610;9.334;2022-12-08T02:11:20;97578.47;;;-0.55;99.27
60589;BME280;46421;48.610;9.334;2022-12-08T02:13:46;97571.97;;;-0.50;99.56
60589;BME280;46421;48.610;9.334;2022-12-08T02:16:51;97566.00;;;-0.18;100.00
60589;BME280;46421;48.610;9.334;2022-12-08T02:20:02;97558.19;;;-0.18;98.75
60589;BME280;46421;48.610;9.334;2022-12-08T02:28:07;97562.22;;;-0.47;99.08
60589;BME280;46421;48.610;9.334;2022-12-08T02:31:01;97552.25;;;-0.42;98.96
60589;BME280;46421;48.610;9.334;2022-12-08T02:39:33;97550.94;;;-0.37;100.00
60589;BME280;46421;48.610;9.334;2022-12-08T02:42:16;97543.44;;;-0.19;97.67
60589;BME280;46421;48.610;9.334;2022-12-08T02:44:55;97537.19;;;-0.27;100.00
60589;BME280;46421;48.610;9.334;2022-12-08T02:47:23;97534.31;;;-0.24;96.97
60589;BME280;46421;48.610;9.334;2022-12-08T02:49:49;97535.28;;;-0.37;99.09
60589;BME280;46421;48.610;9.334;2022-12-08T02:54:49;97526.63;;;-0.49;100.00
60589;BME280;46421;48.610;9.334;2022-12-08T02:57:36;97521.88;;;-0.55;98.91
60589;BME280;46421;48.610;9.334;2022-12-08T03:00:08;97515.44;;;-0.51;97.62
60589;BME280;46421;48.610;9.334;2022-12-08T03:02:58;97511.91;;;-0.50;97.52
60589;BME280;46421;48.610;9.334;2022-12-08T03:08:32;97503.13;;;-0.49;94.44
60589;BME280;46421;48.610;9.334;2022-12-08T03:11:41;97497.19;;;-0.73;97.25
60589;BME280;46421;48.610;9.334;2022-12-08T03:14:05;97504.28;;;-0.98;97.61
60589;BME280;46421;48.610;9.334;2022-12-08T03:16:33;97498.09;;;-1.20;98.10
60589;BME280;46421;48.610;9.334;2022-12-08T03:19:09;97495.09;;;-1.27;99.46
60589;BME280;46421;48.610;9.334;2022-12-08T03:21:38;97495.94;;;-1.26;99.39
60589;BME280;46421;48.610;9.334;2022-12-08T03:24:06;97493.56;;;-1.29;97.84
60589;BME280;46421;48.610;9.334;2022-12-08T03:26:42;97495.47;;;-1.20;97.48
60589;BME280;46421;48.610;9.334;2022-12-08T03:29:08;97499.72;;;-1.30;97.54
60589;BME280;46421;48.610;9.334;2022-12-08T03:31:38;97496.56;;;-1.22;96.55
60589;BME280;46421;48.610;9.334;2022-12-08T03:34:06;97502.97;;;-1.04;96.27
60589;BME280;46421;48.610;9.334;2022-12-08T03:36:33;97499.78;;;-0.85;95.41
60589;BME280;46421;48.610;9.334;2022-12-08T03:38:59;97496.59;;;-1.00;96.43
60589;BME280;46421;48.610;9.334;2022-12-08T03:41:24;97492.31;;;-0.44;95.02
60589;BME280;46421;48.610;9.334;2022-12-08T03:43:55;97483.28;;;-0.62;94.39
60589;BME280;46421;48.610;9.334;2022-12-08T03:46:23;97488.06;;;-0.90;96.20
60589;BME280;46421;48.610;9.334;2022-12-08T03:48:49;97484.75;;;-0.58;96.41
60589;BME280;46421;48.610;9.334;2022-12-08T03:51:15;97490.53;;;-0.55;95.88
60589;BME280;46421;48.610;9.334;2022-12-08T03:53:40;97486.00;;;-0.41;91.29
60589;BME280;46421;48.610;9.334;2022-12-08T03:56:26;97481.41;;;-0.94;94.40
60589;BME280;46421;48.610;9.334;2022-12-08T03:58:53;97479.31;;;-1.36;97.16
60589;BME280;46421;48.610;9.334;2022-12-08T04:01:19;97478.59;;;-1.38;97.06
60589;BME280;46421;48.610;9.334;2022-12-08T04:03:44;97473.41;;;-1.74;96.75
60589;BME280;46421;48.610;9.334;2022-12-08T04:06:10;97468.44;;;-1.77;98.71
60589;BME280;46421;48.610;9.334;2022-12-08T04:08:35;97468.97;;;-1.85;97.81
60589;BME280;46421;48.610;9.334;2022-12-08T04:11:00;97467.22;;;-2.09;99.14
60589;BME280;46421;48.610;9.334;2022-12-08T04:13:26;97468.22;;;-1.98;99.61
60589;BME280;46421;48.610;9.334;2022-12-08T04:15:52;97469.63;;;-2.30;100.00
60589;BME280;46421;48.610;9.334;2022-12-08T04:18:17;97470.88;;;-2.11;100.00
60589;BME280;46421;48.610;9.334;2022-12-08T04:20:43;97464.06;;;-2.01;100.00
60589;BME280;46421;48.610;9.334;2022-12-08T04:23:09;97461.16;;;-1.61;100.00
60589;BME280;46421;48.610;9.334;2022-12-08T04:25:35;97466.75;;;-1.31;98.39
60589;BME280;46421;48.610;9.334;2022-12-08T04:28:02;97465.63;;;-0.70;95.44
60589;BME280;46421;48.610;9.334;2022-12-08T04:30:27;97464.31;;;-0.87;94.68
60589;BME280;46421;48.610;9.334;2022-12-08T04:32:52;97459.53;;;-0.48;95.69
60589;BME280;46421;48.610;9.334;2022-12-08T04:35:18;97458.84;;;-0.96;93.52
60589;BME280;46421;48.610;9.334;2022-12-08T04:37:43;97461.28;;;-1.51;95.58
60589;BME280;46421;48.610;9.334;2022-12-08T04:40:10;97458.56;;;-1.85;97.69
60589;BME280;46421;48.610;9.334;2022-12-08T04:42:36;97449.34;;;-1.78;98.73
60589;BME280;46421;48.610;9.334;2022-12-08T04:45:02;97449.16;;;-1.63;99.20
60589;BME280;46421;48.610;9.334;2022-12-08T04:47:27;97448.16;;;-1.27;98.47
60589;BME280;46421;48.610;9.334;2022-12-08T04:49:53;97451.59;;;-1.37;98.53
60589;BME280;46421;48.610;9.334;2022-12-08T04:52:18;97443.16;;;-1.52;99.11
60589;BME280;46421;48.610;9.334;2022-12-08T04:54:43;97447.44;;;-1.40;98.78
60589;BME280;46421;48.610;9.334;2022-12-08T04:57:09;97437.41;;;-1.10;98.03
60589;BME280;46421;48.610;9.334;2022-12-08T04:59:34;97442.50;;;-1.09;98.03
60589;BME280;46421;48.610;9.334;2022-12-08T05:02:00;97445.47;;;-0.80;97.29
60589;BME280;46421;48.610;9.334;2022-12-08T05:04:25;97447.09;;;-0.67;97.28
60589;BME280;46421;48.610;9.334;2022-12-08T05:06:51;97442.84;;;-0.91;93.11
60589;BME280;46421;48.610;9.334;2022-12-08T05:09:16;97443.03;;;-1.39;95.46
60589;BME280;46421;48.610;9.334;2022-12-08T05:11:41;97443.13;;;-1.64;96.98
60589;BME280;46421;48.610;9.334;2022-12-08T05:14:10;97445.59;;;-1.73;96.22
60589;BME280;46421;48.610;9.334;2022-12-08T05:16:36;97444.13;;;-1.78;96.24
60589;BME280;46421;48.610;9.334;2022-12-08T05:19:02;97438.44;;;-1.83;95.97
60589;BME280;46421;48.610;9.334;2022-12-08T05:21:28;97438.56;;;-2.09;98.35
60589;BME280;46421;48.610;9.334;2022-12-08T05:23:53;97440.84;;;-2.28;100.00
60589;BME280;46421;48.610;9.334;2022-12-08T05:26:19;97439.19;;;-2.05;100.00
60589;BME280;46421;48.610;9.334;2022-12-08T05:28:44;97441.44;;;-1.76;97.91
60589;BME280;46421;48.610;9.334;2022-12-08T05:31:11;97437.03;;;-2.11;97.88
60589;BME280;46421;48.610;9.334;2022-12-08T05:33:37;97441.78;;;-2.29;99.37
60589;BME280;46421;48.610;9.334;2022-12-08T05:36:02;97436.97;;;-2.47;99.60
60589;BME280;46421;48.610;9.334;2022-12-08T05:38:28;97443.84;;;-2.46;99.30
60589;BME280;46421;48.610;9.334;2022-12-08T05:40:53;97433.53;;;-2.47;99.51
60589;BME280;46421;48.610;9.334;2022-12-08T05:43:18;97442.72;;;-2.30;98.49
60589;BME280;46421;48.610;9.334;2022-12-08T05:45:44;97432.88;;;-2.14;97.04
60589;BME280;46421;48.610;9.334;2022-12-08T05:48:09;97423.66;;;-2.07;96.43
60589;BME280;46421;48.610;9.334;2022-12-08T05:50:35;97427.47;;;-1.99;97.78
60589;BME280;46421;48.610;9.334;2022-12-08T05:53:00;97425.03;;;-1.89;95.89
60589;BME280;46421;48.610;9.334;2022-12-08T05:55:25;97428.34;;;-1.87;97.04
60589;BME280;46421;48.610;9.334;2022-12-08T05:57:51;97420.28;;;-1.96;97.90
60589;BME280;46421;48.610;9.334;2022-12-08T06:00:16;97408.97;;;-1.83;98.01
60589;BME280;46421;48.610;9.334;2022-12-08T06:02:42;97421.53;;;-1.66;96.56
60589;BME280;46421;48.610;9.334;2022-12-08T06:05:07;97416.88;;;-1.38;93.21
60589;BME280;46421;48.610;9.334;2022-12-08T06:07:33;97424.31;;;-1.45;92.46
60589;BME280;46421;48.610;9.334;2022-12-08T06:09:58;97422.25;;;-1.64;91.66
60589;BME280;46421;48.610;9.334;2022-12-08T06:12:24;97423.63;;;-1.82;93.06
60589;BME280;46421;48.610;9.334;2022-12-08T06:14:49;97420.16;;;-1.94;92.58
60589;BME280;46421;48.610;9.334;2022-12-08T06:17:14;97429.28;;;-2.00;93.16
60589;BME280;46421;48.610;9.334;2022-12-08T06:19:40;97434.75;;;-2.16;94.64
60589;BME280;46421;48.610;9.334;2022-12-08T06:22:05;97431.75;;;-2.47;94.55
60589;BME280;46421;48.610;9.334;2022-12-08T06:24:30;97425.28;;;-2.65;96.09
60589;BME280;46421;48.610;9.334;2022-12-08T06:26:56;97429.69;;;-1.70;95.94
60589;BME280;46421;48.610;9.334;2022-12-08T06:29:21;97433.47;;;-1.16;92.03
60589;BME280;46421;48.610;9.334;2022-12-08T06:31:47;97436.88;;;-1.50;87.63
60589;BME280;46421;48.610;9.334;2022-12-08T06:34:12;97433.78;;;-2.26;92.32
60589;BME280;46421;48.610;9.334;2022-12-08T06:36:37;97436.66;;;-2.55;94.40
60589;BME280;46421;48.610;9.334;2022-12-08T06:39:03;97442.13;;;-2.58;95.62
60589;BME280;46421;48.610;9.334;2022-12-08T06:41:28;97445.84;;;-2.62;96.50
60589;BME280;46421;48.610;9.334;2022-12-08T06:43:55;97443.19;;;-2.74;95.75
60589;BME280;46421;48.610;9.334;2022-12-08T06:46:21;97445.38;;;-2.80;95.48
60589;BME280;46421;48.610;9.334;2022-12-08T06:48:46;97451.84;;;-2.86;97.93
60589;BME280;46421;48.610;9.334;2022-12-08T06:51:16;97439.81;;;-3.00;99.08
60589;BME280;46421;48.610;9.334;2022-12-08T06:53:42;97449.44;;;-2.15;97.49
60589;BME280;46421;48.610;9.334;2022-12-08T06:56:09;97441.22;;;-1.62;94.82
60589;BME280;46421;48.610;9.334;2022-12-08T06:58:35;97436.63;;;-1.94;92.14
60589;BME280;46421;48.610;9.334;2022-12-08T07:01:11;97443.13;;;-2.24;91.05
60589;BME280;46421;48.610;9.334;2022-12-08T07:03:37;97440.91;;;-2.17;90.73
60589;BME280;46421;48.610;9.334;2022-12-08T07:06:03;97442.84;;;-2.08;92.14
60589;BME280;46421;48.610;9.334;2022-12-08T07:08:29;97443.91;;;-2.10;91.59
60589;BME280;46421;48.610;9.334;2022-12-08T07:10:55;97448.94;;;-1.96;92.04
60589;BME280;46421;48.610;9.334;2022-12-08T07:13:20;97444.28;;;-2.03;91.48
60589;BME280;46421;48.610;9.334;2022-12-08T07:15:46;97451.56;;;-2.20;91.55
60589;BME280;46421;48.610;9.334;2022-12-08T07:18:11;97452.69;;;-2.48;94.09
60589;BME280;46421;48.610;9.334;2022-12-08T07:20:36;97452.81;;;-2.50;94.56
60589;BME280;46421;48.610;9.334;2022-12-08T07:23:02;97454.81;;;-2.29;94.23
60589;BME280;46421;48.610;9.334;2022-12-08T07:25:27;97460.63;;;-1.77;91.13
60589;BME280;46421;48.610;9.334;2022-12-08T07:27:52;97458.63;;;-0.92;89.40
60589;BME280;46421;48.610;9.334;2022-12-08T07:30:18;97462.09;;;-1.62;87.43
60589;BME280;46421;48.610;9.334;2022-12-08T07:32:44;97458.19;;;-1.92;88.90
60589;BME280;46421;48.610;9.334;2022-12-08T07:35:10;97468.94;;;-2.20;91.69
60589;BME280;46421;48.610;9.334;2022-12-08T07:37:36;97458.25;;;-2.29;92.43
60589;BME280;46421;48.610;9.334;2022-12-08T07:40:02;97460.06;;;-2.42;93.32
60589;BME280;46421;48.610;9.334;2022-12-08T07:42:28;97463.53;;;-2.17;93.27
60589;BME280;46421;48.610;9.334;2022-12-08T07:44:53;97456.25;;;-2.25;94.00
60589;BME280;46421;48.610;9.334;2022-12-08T07:47:18;97457.94;;;-1.53;89.31
60589;BME280;46421;48.610;9.334;2022-12-08T07:49:44;97462.53;;;-1.32;87.29
60589;BME280;46421;48.610;9.334;2022-12-08T07:52:09;97464.88;;;-2.00;91.06
60589;BME280;46421;48.610;9.334;2022-12-08T07:54:34;97462.56;;;-1.92;90.97
60589;BME280;46421;48.610;9.334;2022-12-08T07:57:00;97463.31;;;-2.14;91.60
60589;BME280;46421;48.610;9.334;2022-12-08T07:59:27;97458.59;;;-1.38;91.65
60589;BME280;46421;48.610;9.334;2022-12-08T08:01:53;97458.50;;;-1.25;90.93
60589;BME280;46421;48.610;9.334;2022-12-08T08:04:18;97448.06;;;-1.25;88.40
60589;BME280;46421;48.610;9.334;2022-12-08T08:06:43;97464.19;;;-1.20;88.10
60589;BME280;46421;48.610;9.334;2022-12-08T08:09:09;97458.47;;;-1.36;89.62
60589;BME280;46421;48.610;9.334;2022-12-08T08:11:35;97466.31;;;-1.14;88.57
60589;BME280;46421;48.610;9.334;2022-12-08T08:14:01;97455.66;;;-1.10;88.23
60589;BME280;46421;48.610;9.334;2022-12-08T08:16:26;97447.72;;;-0.86;90.06
60589;BME280;46421;48.610;9.334;2022-12-08T08:18:52;97444.84;;;-0.60;89.08
60589;BME280;46421;48.610;9.334;2022-12-08T08:21:18;97447.72;;;-0.98;88.22
60589;BME280;46421;48.610;9.334;2022-12-08T08:23:44;97440.00;;;-0.88;91.43
60589;BME280;46421;48.610;9.334;2022-12-08T08:26:10;97440.09;;;-0.44;90.53
60589;BME280;46421;48.610;9.334;2022-12-08T08:28:35;97437.91;;;1.71;82.87
60589;BME280;46421;48.610;9.334;2022-12-08T08:31:00;97446.63;;;5.59;62.97
60589;BME280;46421;48.610;9.334;2022-12-08T08:33:26;97434.75;;;8.08;53.74
60589;BME280;46421;48.610;9.334;2022-12-08T08:35:52;97435.44;;;9.76;48.11
60589;BME280;46421;48.610;9.334;2022-12-08T08:38:18;97436.94;;;10.59;44.48
60589;BME280;46421;48.610;9.334;2022-12-08T08:40:43;97437.63;;;11.25;42.38
60589;BME280;46421;48.610;9.334;2022-12-08T08:43:09;97438.44;;;12.09;40.14
60589;BME280;46421;48.610;9.334;2022-12-08T08:45:58;97443.03;;;12.48;38.65
60589;BME280;46421;48.610;9.334;2022-12-08T08:48:25;97445.69;;;12.62;38.56
60589;BME280;46421;48.610;9.334;2022-12-08T08:50:51;97439.00;;;10.85;42.12
60589;BME280;46421;48.610;9.334;2022-12-08T08:53:17;97446.41;;;7.59;49.12
60589;BME280;46421;48.610;9.334;2022-12-08T08:55:42;97439.47;;;5.43;55.94
60589;BME280;46421;48.610;9.334;2022-12-08T08:58:07;97442.66;;;3.87;63.48
60589;BME280;46421;48.610;9.334;2022-12-08T09:00:33;97439.91;;;2.85;68.35
60589;BME280;46421;48.610;9.334;2022-12-08T09:02:58;97441.66;;;2.08;74.06
60589;BME280;46421;48.610;9.334;2022-12-08T09:05:23;97430.47;;;1.26;81.69
60589;BME280;46421;48.610;9.334;2022-12-08T09:07:49;97428.53;;;1.18;82.11
60589;BME280;46421;48.610;9.334;2022-12-08T09:10:14;97420.91;;;1.05;83.97
60589;BME280;46421;48.610;9.334;2022-12-08T09:12:39;97421.22;;;1.12;85.20
60589;BME280;46421;48.610;9.334;2022-12-08T09:15:05;97417.59;;;1.13;85.19
60589;BME280;46421;48.610;9.334;2022-12-08T09:17:31;97418.38;;;1.35;85.51
60589;BME280;46421;48.610;9.334;2022-12-08T09:19:56;97411.50;;;1.34;84.54
60589;BME280;46421;48.610;9.334;2022-12-08T09:22:21;97420.31;;;1.33;85.11
60589;BME280;46421;48.610;9.334;2022-12-08T09:24:48;97415.84;;;1.14;87.07
60589;BME280;46421;48.610;9.334;2022-12-08T09:27:13;97413.44;;;1.01;89.38
60589;BME280;46421;48.610;9.334;2022-12-08T09:29:38;97408.91;;;1.03;89.54
60589;BME280;46421;48.610;9.334;2022-12-08T09:32:04;97408.97;;;1.22;88.58
60589;BME280;46421;48.610;9.334;2022-12-08T09:34:29;97409.25;;;1.19;89.70
60589;BME280;46421;48.610;9.334;2022-12-08T09:36:56;97401.56;;;1.37;88.99
60589;BME280;46421;48.610;9.334;2022-12-08T09:39:21;97403.34;;;1.37;89.55
60589;BME280;46421;48.610;9.334;2022-12-08T09:41:55;97397.44;;;1.35;90.06
60589;BME280;46421;48.610;9.334;2022-12-08T09:47:22;97387.06;;;1.33;91.08
60589;BME280;46421;48.610;9.334;2022-12-08T09:49:54;97386.88;;;1.66;87.71
60589;BME280;46421;48.610;9.334;2022-12-08T09:52:25;97386.56;;;1.49;87.62
60589;BME280;46421;48.610;9.334;2022-12-08T09:54:52;97383.81;;;1.51;87.83
60589;BME280;46421;48.610;9.334;2022-12-08T09:57:21;97384.78;;;1.50;88.32
60589;BME280;46421;48.610;9.334;2022-12-08T09:59:54;97388.09;;;1.52;90.13
60589;BME280;46421;48.610;9.334;2022-12-08T10:02:23;97383.34;;;1.26;88.99
60589;BME280;46421;48.610;9.334;2022-12-08T10:04:49;97372.84;;;1.16;88.27
60589;BME280;46421;48.610;9.334;2022-12-08T10:07:44;97371.56;;;1.51;88.00
60589;BME280;46421;48.610;9.334;2022-12-08T10:10:26;97371.81;;;1.58;86.55
60589;BME280;46421;48.610;9.334;2022-12-08T10:13:10;97369.66;;;1.63;88.21
60589;BME280;46421;48.610;9.334;2022-12-08T10:15:52;97362.75;;;1.72;86.91
60589;BME280;46421;48.610;9.334;2022-12-08T10:18:28;97363.97;;;1.68;83.64
60589;BME280;46421;48.610;9.334;2022-12-08T10:20:58;97364.25;;;1.74;85.59
60589;BME280;46421;48.610;9.334;2022-12-08T10:23:33;97353.38;;;1.79;85.00
60589;BME280;46421;48.610;9.334;2022-12-08T10:26:02;97345.66;;;1.78;84.24
60589;BME280;46421;48.610;9.334;2022-12-08T10:28:28;97351.03;;;1.86;84.80
60589;BME280;46421;48.610;9.334;2022-12-08T10:30:53;97343.41;;;2.12;82.74
60589;BME280;46421;48.610;9.334;2022-12-08T10:33:21;97344.47;;;2.29;83.99
60589;BME280;46421;48.610;9.334;2022-12-08T10:35:52;97347.25;;;2.28;81.20
60589;BME280;46421;48.610;9.334;2022-12-08T10:38:25;97339.25;;;2.19;81.83
60589;BME280;46421;48.610;9.334;2022-12-08T10:40:58;97336.06;;;2.26;81.58
60589;BME280;46421;48.610;9.334;2022-12-08T10:43:25;97336.47;;;2.31;79.75
60589;BME280;46421;48.610;9.334;2022-12-08T10:45:51;97341.16;;;2.27;80.68
60589;BME280;46421;48.610;9.334;2022-12-08T10:48:20;97326.81;;;2.31;80.59
60589;BME280;46421;48.610;9.334;2022-12-08T10:50:56;97335.34;;;2.33;79.86
60589;BME280;46421;48.610;9.334;2022-12-08T10:53:27;97328.59;;;2.31;81.43
60589;BME280;46421;48.610;9.334;2022-12-08T10:58:35;97325.28;;;2.39;78.26
60589;BME280;46421;48.610;9.334;2022-12-08T11:01:24;97329.78;;;2.56;77.93
60589;BME280;46421;48.610;9.334;2022-12-08T11:03:56;97320.91;;;2.57;77.15
60589;BME280;46421;48.610;9.334;2022-12-08T11:06:41;97312.06;;;2.96;76.79
60589;BME280;46421;48.610;9.334;2022-12-08T11:16:41;97288.72;;;3.39;71.59
60589;BME280;46421;48.610;9.334;2022-12-08T11:19:13;97279.94;;;3.66;72.02
60589;BME280;46421;48.610;9.334;2022-12-08T11:21:39;97287.81;;;3.48;70.02
60589;BME280;46421;48.610;9.334;2022-12-08T11:24:28;97277.59;;;3.45;72.79
60589;BME280;46421;48.610;9.334;2022-12-08T11:27:01;97282.50;;;3.40;70.39
60589;BME280;46421;48.610;9.334;2022-12-08T11:29:30;97272.63;;;3.24;71.58
60589;BME280;46421;48.610;9.334;2022-12-08T11:31:59;97277.13;;;2.95;71.69
60589;BME280;46421;48.610;9.334;2022-12-08T11:37:18;97267.00;;;2.73;73.44
60589;BME280;46421;48.610;9.334;2022-12-08T11:39:48;97264.44;;;6.60;60.87
60589;BME280;46421;48.610;9.334;2022-12-08T11:42:19;97260.75;;;7.79;56.40
60589;BME280;46421;48.610;9.334;2022-12-08T11:44:58;97252.50;;;8.80;53.14
60589;BME280;46421;48.610;9.334;2022-12-08T11:47:28;97259.09;;;9.79;49.64
60589;BME280;46421;48.610;9.334;2022-12-08T11:50:02;97254.69;;;10.43;46.92
60589;BME280;46421;48.610;9.334;2022-12-08T11:52:37;97258.38;;;7.46;53.82
60589;BME280;46421;48.610;9.334;2022-12-08T11:57:53;97259.00;;;8.77;50.03
60589;BME280;46421;48.610;9.334;2022-12-08T12:00:20;97251.00;;;9.65;47.81
60589;BME280;46421;48.610;9.334;2022-12-08T12:02:53;97254.69;;;8.91;48.24
60589;BME280;46421;48.610;9.334;2022-12-08T12:05:48;97257.88;;;9.38;45.23
60589;BME280;46421;48.610;9.334;2022-12-08T12:11:03;97251.56;;;9.02;46.10
60589;BME280;46421;48.610;9.334;2022-12-08T12:19:02;97244.84;;;8.70;45.26
60589;BME280;46421;48.610;9.334;2022-12-08T12:21:33;97244.66;;;7.88;48.05
60589;BME280;46421;48.610;9.334;2022-12-08T12:24:05;97252.94;;;6.44;51.73
60589;BME280;46421;48.610;9.334;2022-12-08T12:26:36;97238.00;;;4.78;56.10
60589;BME280;46421;48.610;9.334;2022-12-08T12:29:32;97232.69;;;4.01;59.92
60589;BME280;46421;48.610;9.334;2022-12-08T12:32:05;97235.94;;;3.94;61.68
60589;BME280;46421;48.610;9.334;2022-12-08T12:34:37;97233.88;;;3.80;60.14
60589;BME280;46421;48.610;9.334;2022-12-08T12:37:12;97226.22;;;3.69;59.70
60589;BME280;46421;48.610;9.334;2022-12-08T12:39:52;97226.53;;;3.66;60.44
60589;BME280;46421;48.610;9.334;2022-12-08T12:42:46;97224.13;;;3.99;61.70
60589;BME280;46421;48.610;9.334;2022-12-08T12:47:48;97215.47;;;4.06;60.59
60589;BME280;46421;48.610;9.334;2022-12-08T12:50:40;97211.97;;;4.32;60.44
60589;BME280;46421;48.610;9.334;2022-12-08T13:03:39;97204.66;;;4.52;61.20
60589;BME280;46421;48.610;9.334;2022-12-08T13:06:05;97205.63;;;4.43;59.41
60589;BME280;46421;48.610;9.334;2022-12-08T13:08:32;97200.78;;;3.95;61.59
60589;BME280;46421;48.610;9.334;2022-12-08T13:11:03;97198.09;;;3.87;61.76
60589;BME280;46421;48.610;9.334;2022-12-08T13:13:31;97201.19;;;3.56;63.52
60589;BME280;46421;48.610;9.334;2022-12-08T13:18:39;97202.09;;;3.47;64.32
60589;BME280;46421;48.610;9.334;2022-12-08T13:32:03;97200.59;;;3.26;63.88
60589;BME280;46421;48.610;9.334;2022-12-08T13:42:12;97201.34;;;3.00;66.62
60589;BME280;46421;48.610;9.334;2022-12-08T13:44:46;97199.84;;;2.98;66.79
60589;BME280;46421;48.610;9.334;2022-12-08T13:47:16;97188.97;;;3.11;69.22
60589;BME280;46421;48.610;9.334;2022-12-08T13:50:02;97179.53;;;3.18;67.49
60589;BME280;46421;48.610;9.334;2022-12-08T13:52:44;97185.75;;;3.17;67.91
60589;BME280;46421;48.610;9.334;2022-12-08T13:55:16;97179.66;;;3.16;68.88
60589;BME280;46421;48.610;9.334;2022-12-08T13:57:47;97185.66;;;3.09;66.93
60589;BME280;46421;48.610;9.334;2022-12-08T14:00:18;97187.16;;;3.11;67.03
60589;BME280;46421;48.610;9.334;2022-12-08T14:02:46;97192.94;;;2.79;66.86
60589;BME280;46421;48.610;9.334;2022-12-08T14:05:12;97185.44;;;2.84;68.46
60589;BME280;46421;48.610;9.334;2022-12-08T14:07:39;97190.59;;;2.76;69.65
60589;BME280;46421;48.610;9.334;2022-12-08T14:10:15;97204.19;;;2.89;69.07
60589;BME280;46421;48.610;9.334;2022-12-08T14:12:45;97192.63;;;2.82;68.58
60589;BME280;46421;48.610;9.334;2022-12-08T14:15:13;97191.78;;;2.63;69.15
60589;BME280;46421;48.610;9.334;2022-12-08T14:17:39;97188.84;;;2.66;69.82
60589;BME280;46421;48.610;9.334;2022-12-08T14:22:38;97188.81;;;2.48;69.26
60589;BME280;46421;48.610;9.334;2022-12-08T14:25:12;97181.72;;;2.31;70.36
60589;BME280;46421;48.610;9.334;2022-12-08T14:27:38;97185.31;;;2.30;70.28
60589;BME280;46421;48.610;9.334;2022-12-08T14:32:33;97191.66;;;2.27;71.54
60589;BME280;46421;48.610;9.334;2022-12-08T14:37:35;97197.66;;;2.19;69.10
60589;BME280;46421;48.610;9.334;2022-12-08T14:40:11;97190.50;;;2.12;69.84
60589;BME280;46421;48.610;9.334;2022-12-08T14:42:45;97184.38;;;2.21;70.50
60589;BME280;46421;48.610;9.334;2022-12-08T14:45:14;97184.50;;;2.29;70.22
60589;BME280;46421;48.610;9.334;2022-12-08T14:47:40;97181.50;;;2.24;70.28
60589;BME280;46421;48.610;9.334;2022-12-08T14:50:59;97184.53;;;2.19;70.70
60589;BME280;46421;48.610;9.334;2022-12-08T14:53:17;97183.03;;;2.17;70.06